sensor_id;sensor_type;location;lat;lon;timestamp;temperature;humidity
20162;DHT22;51382;53.180;15.414;2023-05-21T00:10:21;14.10;99.90
20162;DHT22;51382;53.180;15.414;2023-05-21T00:25:32;14.40;99.90
20162;DHT22;51382;53.180;15.414;2023-05-21T00:40:43;14.30;99.90
20162;DHT22;51382;53.180;15.414;2023-05-21T00:55:55;14.50;99.90
20162;DHT22;51382;53.180;15.414;2023-05-21T01:11:07;14.40;99.90
20162;DHT22;51382;53.180;15.414;2023-05-21T01:26:18;14.30;99.90
20162;DHT22;51382;53.180;15.414;2023-05-21T01:41:33;14.20;99.90
20162;DHT22;51382;53.180;15.414;2023-05-21T01:56:48;14.00;99.90
20162;DHT22;51382;53.180;15.414;2023-05-21T02:12:01;14.00;99.90
20162;DHT22;51382;53.180;15.414;2023-05-21T02:27:13;13.50;99.90
20162;DHT22;51382;53.180;15.414;2023-05-21T02:42:25;13.50;99.90
20162;DHT22;51382;53.180;15.414;2023-05-21T02:57:36;13.50;99.90
20162;DHT22;51382;53.180;15.414;2023-05-21T03:12:48;13.50;99.90
20162;DHT22;51382;53.180;15.414;2023-05-21T03:28:00;13.50;99.90
20162;DHT22;51382;53.180;15.414;2023-05-21T03:43:22;13.90;99.90
20162;DHT22;51382;53.180;15.414;2023-05-21T03:58:34;14.20;99.90
20162;DHT22;51382;53.180;15.414;2023-05-21T04:13:45;14.70;99.90
20162;DHT22;51382;53.180;15.414;2023-05-21T04:28:57;17.30;99.90
20162;DHT22;51382;53.180;15.414;2023-05-21T04:44:10;18.60;99.90
20162;DHT22;51382;53.180;15.414;2023-05-21T04:59:23;18.80;99.90
20162;DHT22;51382;53.180;15.414;2023-05-21T05:14:35;19.60;99.90
20162;DHT22;51382;53.180;15.414;2023-05-21T05:29:46;21.10;99.90
20162;DHT22;51382;53.180;15.414;2023-05-21T05:44:58;22.00;99.90
20162;DHT22;51382;53.180;15.414;2023-05-21T06:00:10;22.20;99.90
20162;DHT22;51382;53.180;15.414;2023-05-21T06:15:23;25.40;99.90
20162;DHT22;51382;53.180;15.414;2023-05-21T06:30:34;23.30;99.90
20162;DHT22;51382;53.180;15.414;2023-05-21T06:45:46;25.80;98.30
20162;DHT22;51382;53.180;15.414;2023-05-21T07:01:09;23.70;99.90
20162;DHT22;51382;53.180;15.414;2023-05-21T07:16:21;24.80;95.70
20162;DHT22;51382;53.180;15.414;2023-05-21T07:31:33;27.40;90.80
20162;DHT22;51382;53.180;15.414;2023-05-21T07:46:45;28.10;85.90
20162;DHT22;51382;53.180;15.414;2023-05-21T08:01:58;27.90;79.40
20162;DHT22;51382;53.180;15.414;2023-05-21T08:17:10;28.70;73.90
20162;DHT22;51382;53.180;15.414;2023-05-21T08:32:21;28.80;70.90
20162;DHT22;51382;53.180;15.414;2023-05-21T08:47:33;29.10;68.50
20162;DHT22;51382;53.180;15.414;2023-05-21T09:02:40;30.20;63.90
20162;DHT22;51382;53.180;15.414;2023-05-21T09:17:54;28.60;64.80
20162;DHT22;51382;53.180;15.414;2023-05-21T09:33:25;27.40;64.30
20162;DHT22;51382;53.180;15.414;2023-05-21T09:48:38;26.20;66.80
20162;DHT22;51382;53.180;15.414;2023-05-21T10:03:52;25.30;67.20
20162;DHT22;51382;53.180;15.414;2023-05-21T10:19:05;25.60;65.90
20162;DHT22;51382;53.180;15.414;2023-05-21T10:34:18;25.20;64.20
20162;DHT22;51382;53.180;15.414;2023-05-21T10:49:40;25.20;65.10
20162;DHT22;51382;53.180;15.414;2023-05-21T11:05:00;25.70;64.20
20162;DHT22;51382;53.180;15.414;2023-05-21T11:20:12;25.40;64.00
20162;DHT22;51382;53.180;15.414;2023-05-21T11:35:23;25.60;63.10
20162;DHT22;51382;53.180;15.414;2023-05-21T11:50:35;25.50;63.10
20162;DHT22;51382;53.180;15.414;2023-05-21T12:05:51;26.30;63.80
20162;DHT22;51382;53.180;15.414;2023-05-21T12:21:03;26.10;59.00
20162;DHT22;51382;53.180;15.414;2023-05-21T12:36:21;26.00;64.50
20162;DHT22;51382;53.180;15.414;2023-05-21T12:51:38;25.70;62.00
20162;DHT22;51382;53.180;15.414;2023-05-21T13:06:49;25.50;61.60
20162;DHT22;51382;53.180;15.414;2023-05-21T13:22:01;25.60;61.00
20162;DHT22;51382;53.180;15.414;2023-05-21T13:37:14;26.70;60.70
20162;DHT22;51382;53.180;15.414;2023-05-21T13:52:27;26.70;61.00
20162;DHT22;51382;53.180;15.414;2023-05-21T14:07:38;26.10;59.20
20162;DHT22;51382;53.180;15.414;2023-05-21T14:22:50;26.10;57.70
20162;DHT22;51382;53.180;15.414;2023-05-21T14:38:01;26.00;58.30
20162;DHT22;51382;53.180;15.414;2023-05-21T14:53:12;26.30;59.00
20162;DHT22;51382;53.180;15.414;2023-05-21T15:08:23;25.90;55.80
20162;DHT22;51382;53.180;15.414;2023-05-21T15:23:35;25.90;55.00
20162;DHT22;51382;53.180;15.414;2023-05-21T15:38:46;25.50;57.40
20162;DHT22;51382;53.180;15.414;2023-05-21T15:53:58;25.30;57.30
20162;DHT22;51382;53.180;15.414;2023-05-21T16:09:09;24.90;56.80
20162;DHT22;51382;53.180;15.414;2023-05-21T16:24:20;24.90;57.90
20162;DHT22;51382;53.180;15.414;2023-05-21T16:39:32;24.90;60.90
20162;DHT22;51382;53.180;15.414;2023-05-21T16:54:43;24.70;64.20
20162;DHT22;51382;53.180;15.414;2023-05-21T17:09:50;24.30;65.40
20162;DHT22;51382;53.180;15.414;2023-05-21T17:25:02;24.00;64.90
20162;DHT22;51382;53.180;15.414;2023-05-21T17:40:14;23.60;64.00
20162;DHT22;51382;53.180;15.414;2023-05-21T17:55:28;23.20;65.50
20162;DHT22;51382;53.180;15.414;2023-05-21T18:10:39;23.00;66.60
20162;DHT22;51382;53.180;15.414;2023-05-21T18:25:52;22.30;67.90
20162;DHT22;51382;53.180;15.414;2023-05-21T18:41:03;22.00;68.70
20162;DHT22;51382;53.180;15.414;2023-05-21T18:56:15;21.40;69.60
20162;DHT22;51382;53.180;15.414;2023-05-21T19:11:26;20.70;72.50
20162;DHT22;51382;53.180;15.414;2023-05-21T19:26:38;19.90;75.30
20162;DHT22;51382;53.180;15.414;2023-05-21T19:41:49;19.50;75.80
20162;DHT22;51382;53.180;15.414;2023-05-21T19:57:00;19.40;76.70
20162;DHT22;51382;53.180;15.414;2023-05-21T20:12:12;19.10;77.70
20162;DHT22;51382;53.180;15.414;2023-05-21T20:27:23;18.70;79.40
20162;DHT22;51382;53.180;15.414;2023-05-21T20:42:35;18.20;81.20
20162;DHT22;51382;53.180;15.414;2023-05-21T20:57:47;17.80;83.70
20162;DHT22;51382;53.180;15.414;2023-05-21T21:13:00;17.30;86.20
20162;DHT22;51382;53.180;15.414;2023-05-21T21:28:13;17.10;85.80
20162;DHT22;51382;53.180;15.414;2023-05-21T21:43:24;16.70;88.40
20162;DHT22;51382;53.180;15.414;2023-05-21T21:58:35;16.40;90.00
20162;DHT22;51382;53.180;15.414;2023-05-21T22:13:46;16.00;90.50
20162;DHT22;51382;53.180;15.414;2023-05-21T22:28:58;15.70;91.10
20162;DHT22;51382;53.180;15.414;2023-05-21T22:44:10;15.40;91.70
20162;DHT22;51382;53.180;15.414;2023-05-21T22:59:21;15.30;92.00
20162;DHT22;51382;53.180;15.414;2023-05-21T23:14:32;15.10;92.20
20162;DHT22;51382;53.180;15.414;2023-05-21T23:29:43;15.00;92.00
20162;DHT22;51382;53.180;15.414;2023-05-21T23:44:55;14.90;92.40
